Time;durP1;ratioP1;P1;durP2;ratioP2;P2;SDS_P1;SDS_P2;PMS_P1;PMS_P2;Temp;Humidity;BMP_temperature;BMP_pressure;BME280_temperature;BME280_humidity;BME280_pressure;Samples;Min_cycle;Max_cycle;Signal;HPM_P1;HPM_P2
2021/10/31 00:01:42;;;;;;;18.35;10.45;;;;;;;;;;5062423;28;20028;-58
2021/10/31 00:04:07;;;;;;;16.17;8.82;;;;;;;;;;5066117;28;20024;-57
2021/10/31 00:06:33;;;;;;;12.13;7.60;;;;;;;;;;5065000;28;20055;-57
2021/10/31 00:08:58;;;;;;;13.38;7.03;;;;;;;;;;5064729;28;20415;-57
2021/10/31 00:11:23;;;;;;;8.63;5.00;;;;;;;;;;5071968;28;20028;-57
2021/10/31 00:13:49;;;;;;;5.82;3.58;;;;;;;;;;5065643;28;20031;-57
2021/10/31 00:16:14;;;;;;;8.15;4.63;;;;;;;;;;5066188;28;20024;-57
2021/10/31 00:18:40;;;;;;;2.75;2.10;;;;;;;;;;5065941;28;20032;-57
2021/10/31 00:21:05;;;;;;;1.77;1.40;;;;;;;;;;5064459;28;20402;-57
2021/10/31 00:23:31;;;;;;;2.75;1.90;;;;;;;;;;5067783;28;20337;-57
2021/10/31 00:25:56;;;;;;;1.75;1.10;;;;;;;;;;5065526;28;20059;-56
2021/10/31 00:28:22;;;;;;;2.55;1.35;;;;;;;;;;5063710;28;20381;-57
2021/10/31 00:30:47;;;;;;;2.63;1.15;;;;;;;;;;5066754;28;20296;-57
2021/10/31 00:33:13;;;;;;;1.85;1.45;;;;;;;;;;5064542;28;20032;-57
2021/10/31 00:35:38;;;;;;;2.33;1.27;;;;;;;;;;5065862;28;20025;-58
2021/10/31 00:38:04;;;;;;;2.28;1.05;;;;;;;;;;5065271;28;20483;-57
2021/10/31 00:40:31;;;;;;;1.20;1.10;;;;;;;;;;5067340;28;20032;-58
2021/10/31 00:42:57;;;;;;;1.40;1.17;;;;;;;;;;5066583;28;20053;-57
2021/10/31 00:45:22;;;;;;;2.28;1.25;;;;;;;;;;5066259;28;20106;-57
2021/10/31 00:47:48;;;;;;;2.78;1.60;;;;;;;;;;5065895;28;20483;-58
2021/10/31 00:50:14;;;;;;;2.08;1.55;;;;;;;;;;5060991;28;20475;-58
2021/10/31 00:52:41;;;;;;;2.38;1.50;;;;;;;;;;5065606;28;20468;-58
2021/10/31 00:55:06;;;;;;;3.10;1.60;;;;;;;;;;5065357;28;20058;-58
2021/10/31 00:57:32;;;;;;;2.65;1.77;;;;;;;;;;5066618;28;20059;-58
2021/10/31 00:59:58;;;;;;;2.35;1.70;;;;;;;;;;5065193;28;20020;-58
2021/10/31 01:02:26;;;;;;;1.92;1.80;;;;;;;;;;5065731;28;20591;-57
2021/10/31 01:04:55;;;;;;;3.33;1.70;;;;;;;;;;5065292;28;20117;-58
2021/10/31 01:07:57;;;;;;;2.30;1.40;;;;;;;;;;5064559;28;20036;-58
2021/10/31 01:10:56;;;;;;;2.20;1.52;;;;;;;;;;5065641;28;20027;-58
2021/10/31 01:13:40;;;;;;;2.08;1.50;;;;;;;;;;5045477;28;20616;-58
2021/10/31 01:16:05;;;;;;;1.58;1.30;;;;;;;;;;5068652;28;20278;-59
2021/10/31 01:18:31;;;;;;;1.35;1.17;;;;;;;;;;5062727;28;20120;-58
2021/10/31 01:21:17;;;;;;;1.55;1.45;;;;;;;;;;5065516;28;20050;-59
2021/10/31 01:23:59;;;;;;;1.48;1.20;;;;;;;;;;5064612;28;21427;-58
2021/10/31 01:26:37;;;;;;;1.23;1.00;;;;;;;;;;5065398;28;20024;-58
2021/10/31 01:29:23;;;;;;;1.33;1.08;;;;;;;;;;5066449;28;20035;-59
2021/10/31 01:32:11;;;;;;;2.47;1.10;;;;;;;;;;5063539;28;20028;-58
2021/10/31 01:35:09;;;;;;;1.50;1.20;;;;;;;;;;5065160;28;20024;-58
2021/10/31 01:37:35;;;;;;;1.65;0.93;;;;;;;;;;5027499;28;20071;-58
2021/10/31 01:40:15;;;;;;;1.13;1.02;;;;;;;;;;5068421;28;20059;-58
2021/10/31 01:43:00;;;;;;;1.23;1.05;;;;;;;;;;5064916;28;20501;-59
2021/10/31 01:45:38;;;;;;;1.45;1.10;;;;;;;;;;5064850;28;20061;-58
2021/10/31 01:48:23;;;;;;;2.25;1.30;;;;;;;;;;5064151;28;20183;-58
2021/10/31 01:50:54;;;;;;;1.70;1.25;;;;;;;;;;5067239;28;20383;-58
2021/10/31 01:53:31;;;;;;;3.45;1.00;;;;;;;;;;5064867;28;20032;-58
2021/10/31 01:56:08;;;;;;;2.03;1.00;;;;;;;;;;5062744;28;20104;-58
2021/10/31 01:58:37;;;;;;;2.33;1.30;;;;;;;;;;5064932;28;21230;-58
2021/10/31 02:01:05;;;;;;;1.30;1.08;;;;;;;;;;5067932;28;20029;-58
2021/10/31 02:03:31;;;;;;;1.33;1.10;;;;;;;;;;5064644;28;20043;-58
2021/10/31 02:05:59;;;;;;;1.48;0.95;;;;;;;;;;5065318;28;20039;-58
2021/10/31 02:08:26;;;;;;;2.85;1.05;;;;;;;;;;5064476;28;20077;-59
2021/10/31 02:10:54;;;;;;;2.33;1.13;;;;;;;;;;5065508;28;20032;-58
2021/10/31 02:13:24;;;;;;;1.33;1.23;;;;;;;;;;5066052;28;20133;-58
2021/10/31 02:15:52;;;;;;;2.10;1.08;;;;;;;;;;5061810;28;20132;-58
2021/10/31 02:18:20;;;;;;;1.45;1.13;;;;;;;;;;5064493;28;20059;-58
2021/10/31 02:20:47;;;;;;;2.72;1.15;;;;;;;;;;5062931;28;20502;-58
2021/10/31 02:23:12;;;;;;;1.20;1.05;;;;;;;;;;5063843;28;20107;-58
2021/10/31 02:25:38;;;;;;;0.80;0.80;;;;;;;;;;5070941;28;20237;-58
2021/10/31 02:28:04;;;;;;;1.10;1.00;;;;;;;;;;5067483;28;20469;-58
2021/10/31 02:30:29;;;;;;;1.48;1.20;;;;;;;;;;5068550;28;20116;-59
2021/10/31 02:32:55;;;;;;;1.23;1.10;;;;;;;;;;5069410;28;20474;-58
2021/10/31 02:35:22;;;;;;;1.38;1.00;;;;;;;;;;5069124;28;20119;-58
2021/10/31 02:37:48;;;;;;;1.20;1.00;;;;;;;;;;5066836;28;20036;-58
2021/10/31 02:40:16;;;;;;;1.48;1.10;;;;;;;;;;5070123;28;20032;-58
2021/10/31 02:42:43;;;;;;;1.20;1.10;;;;;;;;;;5064841;28;20483;-58
2021/10/31 02:45:09;;;;;;;2.75;1.48;;;;;;;;;;5069628;28;20542;-58
2021/10/31 02:47:43;;;;;;;1.83;1.30;;;;;;;;;;5067197;28;20510;-58
2021/10/31 02:50:14;;;;;;;1.38;1.20;;;;;;;;;;5051434;28;20028;-58
2021/10/31 02:52:54;;;;;;;1.40;1.30;;;;;;;;;;5068360;28;20035;-58
2021/10/31 02:55:39;;;;;;;1.77;1.40;;;;;;;;;;5064227;28;20430;-58
2021/10/31 02:58:09;;;;;;;3.03;1.05;;;;;;;;;;5062698;28;20070;-58
2021/10/31 03:00:37;;;;;;;1.50;1.20;;;;;;;;;;5068086;28;20024;-58
2021/10/31 03:03:05;;;;;;;2.53;1.63;;;;;;;;;;5066785;28;20032;-59
2021/10/31 03:05:30;;;;;;;2.65;1.52;;;;;;;;;;5068104;28;20447;-59
2021/10/31 03:07:56;;;;;;;1.90;1.40;;;;;;;;;;5069861;28;20170;-58
2021/10/31 03:10:22;;;;;;;1.45;1.20;;;;;;;;;;5068017;28;20040;-58
2021/10/31 03:12:48;;;;;;;1.27;0.93;;;;;;;;;;5068021;28;20036;-58
2021/10/31 03:15:14;;;;;;;1.60;1.00;;;;;;;;;;5069590;28;20081;-59
2021/10/31 03:17:39;;;;;;;1.10;0.90;;;;;;;;;;5066898;28;20024;-58
2021/10/31 03:20:05;;;;;;;2.03;1.40;;;;;;;;;;5069854;28;20146;-58
2021/10/31 03:22:32;;;;;;;1.88;0.90;;;;;;;;;;5069981;28;20523;-58
2021/10/31 03:24:58;;;;;;;1.35;0.85;;;;;;;;;;5065533;28;20505;-58
2021/10/31 03:27:23;;;;;;;2.00;1.25;;;;;;;;;;5066364;28;20097;-58
2021/10/31 03:29:49;;;;;;;1.48;1.13;;;;;;;;;;5068406;28;20070;-59
2021/10/31 03:32:15;;;;;;;0.90;0.90;;;;;;;;;;5071082;28;20043;-58
2021/10/31 03:34:41;;;;;;;2.15;1.20;;;;;;;;;;5066816;28;20043;-57
2021/10/31 03:37:06;;;;;;;2.70;1.20;;;;;;;;;;5066273;28;20437;-57
2021/10/31 03:39:32;;;;;;;1.27;1.05;;;;;;;;;;5068522;28;20032;-57
2021/10/31 03:41:57;;;;;;;1.90;1.20;;;;;;;;;;5065045;28;20021;-56
2021/10/31 03:44:25;;;;;;;1.58;1.10;;;;;;;;;;5063438;28;20471;-57
2021/10/31 03:46:52;;;;;;;1.88;1.15;;;;;;;;;;5067102;28;20032;-57
2021/10/31 03:49:17;;;;;;;3.78;1.80;;;;;;;;;;5066446;28;20538;-57
2021/10/31 03:51:44;;;;;;;2.05;1.20;;;;;;;;;;5064821;28;20123;-58
2021/10/31 03:54:10;;;;;;;2.40;1.45;;;;;;;;;;5067926;28;20039;-57
2021/10/31 03:56:36;;;;;;;1.67;1.20;;;;;;;;;;5067076;28;20031;-57
2021/10/31 03:59:01;;;;;;;7.68;4.38;;;;;;;;;;5064180;28;20032;-58
2021/10/31 04:01:29;;;;;;;11.82;5.90;;;;;;;;;;5065846;28;20020;-57
2021/10/31 04:03:55;;;;;;;12.48;7.38;;;;;;;;;;5068347;28;20100;-58
2021/10/31 04:06:20;;;;;;;14.48;7.78;;;;;;;;;;5065606;28;20525;-57
2021/10/31 04:08:46;;;;;;;13.43;7.80;;;;;;;;;;5066307;28;20040;-57
2021/10/31 04:11:11;;;;;;;15.25;8.70;;;;;;;;;;5072191;28;20415;-57
2021/10/31 04:13:36;;;;;;;14.52;8.85;;;;;;;;;;5067962;28;20024;-57
2021/10/31 04:16:03;;;;;;;12.68;8.55;;;;;;;;;;5068773;28;20123;-58
2021/10/31 04:18:29;;;;;;;12.60;7.78;;;;;;;;;;5068257;28;20037;-57
2021/10/31 04:20:56;;;;;;;11.57;6.78;;;;;;;;;;5067607;28;20047;-57
2021/10/31 04:23:22;;;;;;;13.68;6.70;;;;;;;;;;5063298;28;20024;-57
2021/10/31 04:25:47;;;;;;;9.43;6.10;;;;;;;;;;5067235;28;20402;-56
2021/10/31 04:28:13;;;;;;;10.18;6.13;;;;;;;;;;5066397;28;20024;-57
2021/10/31 04:30:39;;;;;;;10.82;6.05;;;;;;;;;;5067653;28;20056;-57
2021/10/31 04:33:05;;;;;;;7.95;4.97;;;;;;;;;;5070659;28;20090;-58
2021/10/31 04:35:30;;;;;;;6.47;3.85;;;;;;;;;;5068180;28;20521;-57
2021/10/31 04:37:59;;;;;;;5.63;3.53;;;;;;;;;;5064021;28;20111;-57
2021/10/31 04:40:25;;;;;;;3.53;2.40;;;;;;;;;;5065734;28;20047;-57
2021/10/31 04:42:53;;;;;;;3.45;2.20;;;;;;;;;;5068968;28;20547;-58
2021/10/31 04:45:20;;;;;;;2.55;1.75;;;;;;;;;;5067400;28;20093;-57
2021/10/31 04:47:45;;;;;;;2.35;1.58;;;;;;;;;;5062029;28;20321;-58
2021/10/31 04:50:10;;;;;;;2.25;1.50;;;;;;;;;;5068332;28;20047;-57
2021/10/31 04:52:36;;;;;;;1.02;0.80;;;;;;;;;;5069115;28;20035;-58
2021/10/31 04:55:01;;;;;;;1.20;0.85;;;;;;;;;;5065957;28;20016;-58
2021/10/31 04:57:27;;;;;;;0.98;0.80;;;;;;;;;;5066129;28;20021;-58
2021/10/31 04:59:52;;;;;;;1.00;0.90;;;;;;;;;;5072219;28;20312;-56
2021/10/31 05:02:18;;;;;;;1.35;0.95;;;;;;;;;;5064558;28;20505;-58
2021/10/31 05:04:43;;;;;;;2.42;0.80;;;;;;;;;;5066475;28;20028;-58
2021/10/31 05:07:09;;;;;;;1.40;0.70;;;;;;;;;;5067966;28;20024;-58
2021/10/31 05:09:34;;;;;;;1.88;1.00;;;;;;;;;;5065517;28;20050;-58
2021/10/31 05:11:59;;;;;;;1.75;0.98;;;;;;;;;;5063936;28;20058;-57
2021/10/31 05:14:25;;;;;;;2.50;1.52;;;;;;;;;;5066803;28;20024;-57
2021/10/31 05:16:50;;;;;;;1.60;1.15;;;;;;;;;;5061911;28;20036;-57
2021/10/31 05:19:16;;;;;;;3.50;1.27;;;;;;;;;;5063994;28;20024;-57
2021/10/31 05:21:41;;;;;;;2.22;1.38;;;;;;;;;;5067574;28;20029;-57
2021/10/31 05:24:07;;;;;;;1.90;1.30;;;;;;;;;;5069461;28;20155;-57
2021/10/31 05:26:32;;;;;;;1.90;1.40;;;;;;;;;;5064001;28;20032;-57
2021/10/31 05:28:58;;;;;;;4.13;2.58;;;;;;;;;;5064677;28;20021;-57
2021/10/31 05:31:23;;;;;;;11.60;6.85;;;;;;;;;;5063716;28;20133;-58
2021/10/31 05:33:50;;;;;;;14.85;9.13;;;;;;;;;;5068179;28;20074;-58
2021/10/31 05:36:16;;;;;;;16.10;10.00;;;;;;;;;;5066063;28;20455;-57
2021/10/31 05:38:41;;;;;;;14.43;8.95;;;;;;;;;;5066041;28;20023;-57
2021/10/31 05:41:07;;;;;;;13.23;9.23;;;;;;;;;;5067570;28;20125;-58
2021/10/31 05:43:32;;;;;;;14.60;9.30;;;;;;;;;;5067079;28;20317;-57
2021/10/31 05:45:58;;;;;;;15.75;9.00;;;;;;;;;;5070880;28;20047;-58
2021/10/31 05:48:24;;;;;;;18.08;9.20;;;;;;;;;;5063451;28;20033;-58
2021/10/31 05:50:53;;;;;;;24.20;13.70;;;;;;;;;;5066444;28;20036;-58
2021/10/31 05:53:19;;;;;;;23.98;13.60;;;;;;;;;;5068477;28;20048;-58
2021/10/31 05:55:44;;;;;;;29.27;17.33;;;;;;;;;;5066497;28;20431;-57
2021/10/31 05:58:10;;;;;;;46.70;24.70;;;;;;;;;;5053741;28;20494;-57
2021/10/31 06:00:35;;;;;;;35.03;20.92;;;;;;;;;;5003478;28;20037;-57
2021/10/31 06:03:01;;;;;;;28.73;16.15;;;;;;;;;;5003218;28;20116;-59
2021/10/31 06:05:27;;;;;;;26.45;14.73;;;;;;;;;;5005216;28;20034;-58
2021/10/31 06:07:52;;;;;;;22.50;13.70;;;;;;;;;;5007401;28;20042;-58
2021/10/31 06:10:18;;;;;;;22.13;13.90;;;;;;;;;;5005408;28;20385;-59
2021/10/31 06:12:46;;;;;;;20.30;12.98;;;;;;;;;;5008081;28;20029;-58
2021/10/31 06:15:13;;;;;;;22.10;13.10;;;;;;;;;;5001815;28;20037;-57
2021/10/31 06:17:39;;;;;;;22.05;12.80;;;;;;;;;;4998244;28;20497;-57
2021/10/31 06:20:10;;;;;;;21.95;13.18;;;;;;;;;;5000227;28;20509;-58
2021/10/31 06:22:35;;;;;;;20.70;13.07;;;;;;;;;;5003129;28;20481;-57
2021/10/31 06:25:01;;;;;;;20.70;12.48;;;;;;;;;;5002511;28;20117;-58
2021/10/31 06:27:26;;;;;;;20.23;13.18;;;;;;;;;;5010861;28;20346;-58
2021/10/31 06:29:51;;;;;;;20.60;12.55;;;;;;;;;;5008544;28;20072;-57
2021/10/31 06:32:17;;;;;;;22.20;13.05;;;;;;;;;;5007152;28;20098;-57
2021/10/31 06:34:42;;;;;;;22.08;14.10;;;;;;;;;;5000225;28;20030;-57
2021/10/31 06:37:08;;;;;;;23.75;15.02;;;;;;;;;;5000678;28;20068;-57
2021/10/31 06:39:33;;;;;;;24.67;16.15;;;;;;;;;;5002351;28;20406;-57
2021/10/31 06:41:58;;;;;;;27.60;16.58;;;;;;;;;;5017325;28;20029;-58
2021/10/31 06:44:25;;;;;;;27.55;14.65;;;;;;;;;;5000395;28;20035;-58
2021/10/31 06:46:51;;;;;;;26.20;14.20;;;;;;;;;;5003152;28;20103;-58
2021/10/31 06:49:17;;;;;;;27.30;15.30;;;;;;;;;;5000075;28;20492;-57
2021/10/31 06:51:42;;;;;;;25.90;14.02;;;;;;;;;;5006676;28;20036;-57
2021/10/31 06:54:09;;;;;;;23.15;13.95;;;;;;;;;;5000669;28;20464;-58
2021/10/31 06:56:35;;;;;;;24.15;14.77;;;;;;;;;;5003001;28;20485;-61
2021/10/31 06:59:01;;;;;;;23.38;13.70;;;;;;;;;;5006955;28;20053;-57
2021/10/31 07:01:27;;;;;;;23.83;14.00;;;;;;;;;;4997127;28;20053;-57
2021/10/31 07:03:53;;;;;;;24.63;13.73;;;;;;;;;;5015257;28;20084;-57
2021/10/31 07:06:18;;;;;;;20.75;12.50;;;;;;;;;;4999507;28;20560;-57
2021/10/31 07:08:44;;;;;;;22.52;13.48;;;;;;;;;;5018549;28;20034;-57
2021/10/31 07:11:10;;;;;;;23.00;12.55;;;;;;;;;;5000200;28;20026;-57
2021/10/31 07:13:36;;;;;;;22.75;12.85;;;;;;;;;;5005639;28;20581;-57
2021/10/31 07:16:01;;;;;;;22.05;14.05;;;;;;;;;;5001818;28;20448;-58
2021/10/31 07:18:26;;;;;;;23.08;14.43;;;;;;;;;;5003406;28;20060;-57
2021/10/31 07:20:53;;;;;;;22.17;13.35;;;;;;;;;;5007914;28;20045;-56
2021/10/31 07:23:18;;;;;;;26.52;14.13;;;;;;;;;;5006483;28;20373;-57
2021/10/31 07:25:44;;;;;;;22.60;14.13;;;;;;;;;;5015516;28;20046;-56
2021/10/31 07:28:10;;;;;;;21.83;14.27;;;;;;;;;;5003402;28;20583;-57
2021/10/31 07:30:36;;;;;;;11.60;7.25;;;;;;;;;;5004108;28;20033;-56
2021/10/31 07:33:02;;;;;;;13.27;8.30;;;;;;;;;;5005378;28;20033;-57
2021/10/31 07:35:30;;;;;;;15.68;10.00;;;;;;;;;;5000715;28;20378;-57
2021/10/31 07:37:56;;;;;;;20.75;12.07;;;;;;;;;;4999684;28;20525;-57
2021/10/31 07:40:23;;;;;;;21.50;12.93;;;;;;;;;;5005498;28;20113;-57
2021/10/31 07:42:50;;;;;;;26.48;14.45;;;;;;;;;;5003905;28;20048;-57
2021/10/31 07:45:16;;;;;;;26.48;14.13;;;;;;;;;;5002489;28;20022;-56
2021/10/31 07:47:41;;;;;;;26.65;14.63;;;;;;;;;;5008384;28;20108;-56
2021/10/31 07:50:08;;;;;;;29.42;14.15;;;;;;;;;;5005515;28;20381;-56
2021/10/31 07:52:34;;;;;;;24.00;12.90;;;;;;;;;;5005087;28;20072;-56
2021/10/31 07:55:03;;;;;;;28.45;12.98;;;;;;;;;;4999708;28;20022;-56
2021/10/31 07:57:30;;;;;;;21.75;11.73;;;;;;;;;;5001555;28;20033;-56
2021/10/31 07:59:55;;;;;;;20.10;10.70;;;;;;;;;;5003846;28;20077;-57
2021/10/31 08:02:20;;;;;;;26.20;13.13;;;;;;;;;;5001274;28;20451;-56
2021/10/31 08:04:46;;;;;;;23.13;12.50;;;;;;;;;;5004396;28;20065;-56
2021/10/31 08:07:13;;;;;;;27.02;13.27;;;;;;;;;;4999312;28;20031;-57
2021/10/31 08:09:39;;;;;;;29.75;15.10;;;;;;;;;;4999623;28;20760;-58
2021/10/31 08:12:04;;;;;;;43.75;18.13;;;;;;;;;;5003844;28;20026;-58
2021/10/31 08:14:30;;;;;;;49.65;18.98;;;;;;;;;;5000614;28;20036;-56
2021/10/31 08:16:56;;;;;;;42.83;17.08;;;;;;;;;;5003280;28;20038;-57
2021/10/31 08:19:24;;;;;;;38.15;14.73;;;;;;;;;;4997861;28;20489;-58
2021/10/31 08:21:52;;;;;;;22.58;10.88;;;;;;;;;;5002022;28;20132;-57
2021/10/31 08:24:17;;;;;;;26.13;12.38;;;;;;;;;;5003797;28;20045;-57
2021/10/31 08:26:43;;;;;;;17.52;8.80;;;;;;;;;;5012871;28;20034;-58
2021/10/31 08:29:11;;;;;;;13.52;8.13;;;;;;;;;;5002637;28;20049;-58
2021/10/31 08:31:40;;;;;;;16.02;8.23;;;;;;;;;;5018907;28;20073;-60
2021/10/31 08:34:06;;;;;;;17.77;8.88;;;;;;;;;;4998233;28;20100;-57
2021/10/31 08:36:31;;;;;;;16.38;8.50;;;;;;;;;;5000624;28;20034;-57
2021/10/31 08:38:58;;;;;;;15.73;8.55;;;;;;;;;;5005470;28;20053;-56
2021/10/31 08:41:24;;;;;;;17.40;9.13;;;;;;;;;;5003438;28;20021;-58
2021/10/31 08:43:59;;;;;;;15.82;9.07;;;;;;;;;;4999102;28;20571;-57
2021/10/31 08:46:25;;;;;;;22.83;12.40;;;;;;;;;;4995366;28;20065;-58
2021/10/31 08:48:50;;;;;;;19.17;13.40;;;;;;;;;;4999570;28;20113;-58
2021/10/31 08:51:17;;;;;;;21.10;13.13;;;;;;;;;;4998672;28;20462;-57
2021/10/31 08:53:42;;;;;;;18.60;12.48;;;;;;;;;;4998046;28;20322;-57
2021/10/31 08:56:11;;;;;;;18.15;11.90;;;;;;;;;;5003658;28;20025;-58
2021/10/31 08:58:43;;;;;;;14.63;9.35;;;;;;;;;;4996293;28;20500;-57
2021/10/31 09:01:10;;;;;;;16.95;10.18;;;;;;;;;;4992597;28;20105;-58
2021/10/31 09:03:35;;;;;;;16.23;10.60;;;;;;;;;;5005634;28;20022;-58
2021/10/31 09:06:01;;;;;;;15.43;10.63;;;;;;;;;;5001608;28;20092;-58
2021/10/31 09:08:26;;;;;;;19.23;12.23;;;;;;;;;;5000776;28;20080;-57
2021/10/31 09:10:52;;;;;;;23.77;15.15;;;;;;;;;;5001574;28;20084;-58
2021/10/31 09:13:19;;;;;;;17.65;12.25;;;;;;;;;;4997937;28;20034;-57
2021/10/31 09:15:44;;;;;;;19.73;13.35;;;;;;;;;;5003156;28;20033;-58
2021/10/31 09:18:10;;;;;;;24.98;14.25;;;;;;;;;;5001966;28;20029;-58
2021/10/31 09:20:37;;;;;;;20.85;11.25;;;;;;;;;;5002275;28;20041;-58
2021/10/31 09:23:04;;;;;;;12.75;8.40;;;;;;;;;;4993594;28;20389;-58
2021/10/31 09:25:31;;;;;;;10.77;7.78;;;;;;;;;;5001489;28;20415;-59
2021/10/31 09:27:57;;;;;;;11.02;7.30;;;;;;;;;;4996076;28;20034;-58
2021/10/31 09:30:25;;;;;;;9.68;6.57;;;;;;;;;;4997379;28;20532;-57
2021/10/31 09:32:51;;;;;;;10.02;6.70;;;;;;;;;;4996876;28;20093;-58
2021/10/31 09:35:21;;;;;;;9.80;6.97;;;;;;;;;;4999768;28;20121;-58
2021/10/31 09:37:49;;;;;;;8.05;6.03;;;;;;;;;;5012050;28;20050;-57
2021/10/31 09:40:15;;;;;;;11.85;7.60;;;;;;;;;;4999445;28;20105;-57
2021/10/31 09:42:41;;;;;;;10.05;7.15;;;;;;;;;;5016056;28;20030;-57
2021/10/31 09:45:07;;;;;;;9.27;6.38;;;;;;;;;;5001894;28;20032;-57
2021/10/31 09:47:33;;;;;;;9.80;5.88;;;;;;;;;;4996207;28;20377;-58
2021/10/31 09:49:58;;;;;;;9.85;6.32;;;;;;;;;;5008472;28;20036;-58
2021/10/31 09:52:25;;;;;;;6.68;4.50;;;;;;;;;;4999718;28;20034;-58
2021/10/31 09:54:51;;;;;;;3.08;2.70;;;;;;;;;;4998595;28;20021;-58
2021/10/31 09:57:17;;;;;;;3.92;2.47;;;;;;;;;;5002502;28;20605;-60
2021/10/31 09:59:49;;;;;;;3.35;2.40;;;;;;;;;;4996553;28;20081;-60
2021/10/31 10:05:05;;;;;;;4.10;2.20;;;;;;;;;;5002964;28;20401;-59
2021/10/31 10:07:31;;;;;;;4.10;1.90;;;;;;;;;;4999369;28;20065;-59
2021/10/31 10:09:57;;;;;;;2.92;1.95;;;;;;;;;;5000346;28;20026;-59
2021/10/31 10:12:27;;;;;;;3.97;2.33;;;;;;;;;;5000626;28;20381;-59
2021/10/31 10:15:04;;;;;;;2.67;2.08;;;;;;;;;;5000519;28;20092;-58
2021/10/31 10:17:51;;;;;;;4.78;2.28;;;;;;;;;;4999037;28;20064;-58
2021/10/31 10:20:18;;;;;;;2.63;1.83;;;;;;;;;;4997783;28;20571;-58
2021/10/31 10:22:45;;;;;;;2.75;1.80;;;;;;;;;;4995771;28;20065;-57
2021/10/31 10:25:11;;;;;;;2.65;2.03;;;;;;;;;;4995381;28;20395;-58
2021/10/31 10:27:51;;;;;;;2.30;1.88;;;;;;;;;;4998261;28;20026;-58
2021/10/31 10:30:23;;;;;;;3.50;1.92;;;;;;;;;;5001367;28;20109;-58
2021/10/31 10:32:57;;;;;;;2.33;1.80;;;;;;;;;;5000475;28;20105;-58
2021/10/31 10:35:26;;;;;;;2.65;1.70;;;;;;;;;;4995521;28;20393;-57
2021/10/31 10:37:53;;;;;;;2.60;1.73;;;;;;;;;;4998144;28;20463;-57
2021/10/31 10:40:23;;;;;;;2.83;1.80;;;;;;;;;;5000905;28;20033;-57
2021/10/31 10:42:59;;;;;;;2.47;1.85;;;;;;;;;;4993829;28;20102;-56
2021/10/31 10:45:29;;;;;;;5.20;2.67;;;;;;;;;;5000043;28;20038;-56
2021/10/31 10:47:55;;;;;;;;;;;;;;;;;;5003920;28;20022;-57
2021/10/31 10:50:24;;;;;;;3.03;1.90;;;;;;;;;;4996929;28;19933;-57
2021/10/31 10:52:50;;;;;;;2.58;1.90;;;;;;;;;;5016075;28;20536;-56
2021/10/31 10:55:27;;;;;;;3.50;2.08;;;;;;;;;;5001924;28;20026;-56
2021/10/31 10:57:58;;;;;;;3.00;2.00;;;;;;;;;;4999766;28;20388;-56
2021/10/31 11:00:27;;;;;;;6.30;2.88;;;;;;;;;;5000644;28;20084;-56
2021/10/31 11:03:00;;;;;;;2.90;1.88;;;;;;;;;;5005189;28;20117;-57
2021/10/31 11:05:29;;;;;;;2.42;2.00;;;;;;;;;;5003927;28;20107;-58
2021/10/31 11:07:55;;;;;;;;;;;;;;;;;;5013876;28;20034;-58
2021/10/31 11:10:26;;;;;;;2.88;1.92;;;;;;;;;;5003603;28;19925;-57
2021/10/31 11:12:54;;;;;;;3.42;1.80;;;;;;;;;;5001694;28;20111;-57
2021/10/31 11:15:25;;;;;;;3.92;1.92;;;;;;;;;;5001249;28;20487;-57
2021/10/31 11:17:56;;;;;;;4.38;1.90;;;;;;;;;;5004282;28;20366;-58
2021/10/31 11:20:30;;;;;;;3.95;2.83;;;;;;;;;;5004261;28;20033;-58
2021/10/31 11:22:58;;;;;;;4.43;2.63;;;;;;;;;;5000841;28;20025;-58
2021/10/31 11:25:25;;;;;;;4.22;2.47;;;;;;;;;;5003585;28;20120;-58
2021/10/31 11:27:52;;;;;;;3.53;2.35;;;;;;;;;;5004088;28;20449;-58
2021/10/31 11:30:20;;;;;;;4.00;2.35;;;;;;;;;;5003556;28;20033;-58
2021/10/31 11:32:47;;;;;;;2.95;2.20;;;;;;;;;;5002766;28;20049;-58
2021/10/31 11:35:16;;;;;;;3.58;2.50;;;;;;;;;;4998269;28;20117;-58
2021/10/31 11:37:54;;;;;;;3.85;2.80;;;;;;;;;;5003111;28;20034;-58
2021/10/31 11:40:25;;;;;;;3.13;2.03;;;;;;;;;;5018155;28;20036;-58
2021/10/31 11:42:51;;;;;;;3.92;2.00;;;;;;;;;;5002483;28;20025;-58
2021/10/31 11:45:18;;;;;;;3.80;2.10;;;;;;;;;;5002423;28;20084;-58
2021/10/31 11:48:14;;;;;;;3.85;2.05;;;;;;;;;;5001253;28;20117;-57
2021/10/31 11:50:42;;;;;;;2.83;2.00;;;;;;;;;;5003038;28;20396;-57
2021/10/31 11:53:18;;;;;;;2.40;1.95;;;;;;;;;;4999005;28;20022;-57
2021/10/31 11:55:51;;;;;;;3.65;1.67;;;;;;;;;;4998449;28;20081;-58
2021/10/31 11:58:29;;;;;;;3.40;1.90;;;;;;;;;;4997204;28;20160;-58
2021/10/31 12:01:01;;;;;;;2.92;2.00;;;;;;;;;;5003167;28;20378;-57
2021/10/31 12:03:32;;;;;;;2.20;1.48;;;;;;;;;;5000515;28;20488;-57
2021/10/31 12:06:21;;;;;;;2.90;1.92;;;;;;;;;;5005731;28;20029;-58
2021/10/31 12:08:57;;;;;;;3.50;1.70;;;;;;;;;;4992367;28;20034;-58
2021/10/31 12:11:42;;;;;;;3.75;1.90;;;;;;;;;;4997846;28;20108;-57
2021/10/31 12:14:12;;;;;;;2.35;1.60;;;;;;;;;;4985533;28;20307;-57
2021/10/31 12:16:54;;;;;;;4.15;1.65;;;;;;;;;;5004261;28;20034;-58
2021/10/31 12:19:33;;;;;;;5.93;1.80;;;;;;;;;;4999232;28;20045;-58
2021/10/31 12:22:08;;;;;;;3.38;1.50;;;;;;;;;;5012348;28;20033;-58
2021/10/31 12:24:39;;;;;;;2.92;1.83;;;;;;;;;;4998905;28;20029;-59
2021/10/31 12:27:16;;;;;;;2.63;1.67;;;;;;;;;;4999984;28;20065;-58
2021/10/31 12:29:51;;;;;;;2.50;1.63;;;;;;;;;;4999678;28;20034;-59
2021/10/31 12:32:19;;;;;;;2.25;1.58;;;;;;;;;;5004325;28;20029;-58
2021/10/31 12:34:53;;;;;;;2.60;1.90;;;;;;;;;;5000202;28;20026;-58
2021/10/31 12:37:18;;;;;;;2.58;1.70;;;;;;;;;;5003085;28;20509;-59
2021/10/31 12:39:43;;;;;;;2.50;1.75;;;;;;;;;;5003901;28;20041;-58
2021/10/31 12:42:13;;;;;;;2.10;1.65;;;;;;;;;;5006220;28;20524;-59
2021/10/31 12:45:25;;;;;;;2.60;1.50;;;;;;;;;;5014336;28;20026;-58
2021/10/31 12:48:06;;;;;;;2.55;1.95;;;;;;;;;;5001586;28;20099;-59
2021/10/31 12:50:34;;;;;;;2.38;1.80;;;;;;;;;;5003781;28;20054;-59
2021/10/31 12:53:08;;;;;;;1.98;1.58;;;;;;;;;;5000794;28;20030;-58
2021/10/31 12:55:35;;;;;;;2.10;1.40;;;;;;;;;;4998078;28;20129;-58
2021/10/31 12:58:19;;;;;;;1.70;1.42;;;;;;;;;;4998745;28;20053;-59
2021/10/31 13:00:51;;;;;;;2.17;1.73;;;;;;;;;;5000366;28;20034;-59
2021/10/31 13:03:19;;;;;;;2.33;1.75;;;;;;;;;;4999359;28;20612;-58
2021/10/31 13:05:45;;;;;;;2.38;1.60;;;;;;;;;;5000200;28;20026;-58
2021/10/31 13:08:15;;;;;;;2.45;1.60;;;;;;;;;;4996674;28;20045;-58
2021/10/31 13:10:49;;;;;;;2.80;1.75;;;;;;;;;;4997375;28;20033;-58
2021/10/31 13:13:17;;;;;;;1.80;1.55;;;;;;;;;;4994772;28;20034;-58
2021/10/31 13:15:48;;;;;;;2.10;1.50;;;;;;;;;;4998553;28;20117;-59
2021/10/31 13:18:15;;;;;;;2.47;1.70;;;;;;;;;;5000304;28;20030;-58
2021/10/31 13:20:47;;;;;;;2.88;1.80;;;;;;;;;;4998807;28;20029;-58
2021/10/31 13:23:14;;;;;;;3.97;1.70;;;;;;;;;;5000114;28;20030;-58
2021/10/31 13:25:54;;;;;;;3.28;1.90;;;;;;;;;;5003331;28;20033;-57
2021/10/31 13:28:25;;;;;;;2.67;2.10;;;;;;;;;;4996213;28;20022;-58
2021/10/31 13:30:58;;;;;;;3.08;2.05;;;;;;;;;;4996593;28;20066;-59
2021/10/31 13:33:45;;;;;;;2.65;1.73;;;;;;;;;;5003829;28;20393;-59
2021/10/31 13:36:25;;;;;;;2.22;1.75;;;;;;;;;;5001614;28;20033;-58
2021/10/31 13:39:01;;;;;;;1.75;1.58;;;;;;;;;;4999194;28;20110;-58
2021/10/31 13:41:32;;;;;;;2.00;1.50;;;;;;;;;;4999078;28;20033;-58
2021/10/31 13:44:03;;;;;;;3.78;2.10;;;;;;;;;;4998172;28;20029;-59
2021/10/31 13:46:35;;;;;;;2.47;1.65;;;;;;;;;;5000945;28;20030;-59
2021/10/31 13:49:05;;;;;;;2.75;2.00;;;;;;;;;;4994727;28;20038;-59
2021/10/31 13:51:31;;;;;;;2.53;1.90;;;;;;;;;;5004325;28;20116;-58
2021/10/31 13:53:58;;;;;;;5.45;2.80;;;;;;;;;;5003903;28;20025;-58
2021/10/31 13:56:24;;;;;;;2.53;2.00;;;;;;;;;;5000505;28;20025;-58
2021/10/31 13:58:50;;;;;;;3.58;2.13;;;;;;;;;;5003176;28;20207;-58
2021/10/31 14:01:39;;;;;;;3.17;2.03;;;;;;;;;;4995126;28;20061;-58
2021/10/31 14:04:11;;;;;;;2.15;1.65;;;;;;;;;;4998144;28;20029;-58
2021/10/31 14:06:38;;;;;;;2.75;1.95;;;;;;;;;;4999760;28;20029;-60
2021/10/31 14:09:05;;;;;;;3.80;2.20;;;;;;;;;;4999405;28;20485;-59
2021/10/31 14:11:31;;;;;;;2.50;1.98;;;;;;;;;;5003004;28;20087;-58
2021/10/31 14:13:56;;;;;;;2.55;2.00;;;;;;;;;;5002596;28;20025;-59
2021/10/31 14:16:26;;;;;;;3.50;1.92;;;;;;;;;;4997618;28;20022;-59
2021/10/31 14:18:52;;;;;;;3.63;2.03;;;;;;;;;;5002936;28;20166;-59
2021/10/31 14:21:18;;;;;;;3.67;1.90;;;;;;;;;;5000802;28;20084;-59
2021/10/31 14:23:44;;;;;;;3.95;2.13;;;;;;;;;;5005401;28;20056;-59
2021/10/31 14:26:13;;;;;;;2.58;2.20;;;;;;;;;;5004299;28;20072;-58
2021/10/31 14:28:46;;;;;;;3.55;2.05;;;;;;;;;;5000351;28;20025;-59
2021/10/31 14:31:14;;;;;;;2.88;2.10;;;;;;;;;;5005776;28;20277;-58
2021/10/31 14:33:43;;;;;;;3.55;2.40;;;;;;;;;;5002164;28;20043;-58
2021/10/31 14:36:16;;;;;;;3.33;2.63;;;;;;;;;;5003382;28;20365;-59
2021/10/31 14:38:54;;;;;;;4.03;2.25;;;;;;;;;;5004546;28;20109;-59
2021/10/31 14:41:22;;;;;;;2.80;2.10;;;;;;;;;;4999829;28;20064;-58
2021/10/31 14:43:58;;;;;;;3.78;2.60;;;;;;;;;;5005346;28;20080;-58
2021/10/31 14:46:33;;;;;;;3.42;2.38;;;;;;;;;;5001874;28;20034;-59
2021/10/31 14:49:05;;;;;;;4.53;3.30;;;;;;;;;;5003763;28;20025;-58